Terminal Aerodrome Forecast
Issued by NWS Albany, NY

Home | Current Version | Previous Version | Text Only | Print | Product List | Glossary On
Versions: 1 2 3 4 5 6 7 8 9 10 11 12 13 14 15 16 17 18 19 20 21 22 23 24 25 26 27 28 29
579
FTUS41 KALY 201757 RRA
TAFPOU
TAF
KPOU 201757Z 2018/2118 22004KT P6SM SCT080
     FM210300 21005KT 3SM BR SCT005 OVC010
     FM210700 21005KT 1SM BR BKN005 OVC010
     FM211400 22010G18KT P6SM SCT250=

USA.gov is the U.S. government's official web portal to all federal, state and local government web resources and services.